Time;durP1;ratioP1;P1;durP2;ratioP2;P2;SDS_P1;SDS_P2;PMS_P1;PMS_P2;Temp;Humidity;BMP_temperature;BMP_pressure;BME280_temperature;BME280_humidity;BME280_pressure;Samples;Min_cycle;Max_cycle;Signal;HPM_P1;HPM_P2
2022/04/22 00:00:06;;;;;;;7.45;5.70;;;7.20;90.70;;;;;;5058499;28;20043;-79
2022/04/22 00:02:32;;;;;;;9.63;6.20;;;7.20;90.90;;;;;;5059582;28;20033;-79
2022/04/22 00:04:58;;;;;;;7.40;6.32;;;7.10;91.10;;;;;;5058569;28;20440;-79
2022/04/22 00:07:23;;;;;;;7.38;5.88;;;7.10;91.20;;;;;;5058121;28;20037;-79
2022/04/22 00:09:49;;;;;;;8.02;6.45;;;7.10;91.40;;;;;;5057648;28;20044;-79
2022/04/22 00:12:15;;;;;;;9.90;6.10;;;7.10;91.50;;;;;;5058261;28;20025;-80
2022/04/22 00:14:40;;;;;;;7.25;6.28;;;7.10;91.70;;;;;;5058085;28;20027;-80
2022/04/22 00:17:06;;;;;;;11.25;6.50;;;7.10;91.70;;;;;;5056770;28;20074;-79
2022/04/22 00:19:32;;;;;;;10.05;7.25;;;7.00;91.80;;;;;;5060371;28;20359;-79
2022/04/22 00:21:58;;;;;;;10.32;6.70;;;7.00;92.00;;;;;;5064540;28;20032;-79
2022/04/22 00:24:24;;;;;;;12.93;7.65;;;7.10;92.10;;;;;;5079243;28;20028;-78
2022/04/22 00:26:49;;;;;;;8.63;6.55;;;7.00;92.20;;;;;;5083728;28;20024;-78
2022/04/22 00:29:15;;;;;;;9.00;6.50;;;7.00;92.30;;;;;;5078272;28;20120;-78
2022/04/22 00:31:41;;;;;;;8.23;6.70;;;6.90;92.50;;;;;;5080969;28;20024;-79
2022/04/22 00:34:06;;;;;;;7.60;6.28;;;6.90;92.60;;;;;;5079266;28;20531;-79
2022/04/22 00:36:32;;;;;;;9.35;6.57;;;6.90;92.80;;;;;;5077630;28;20017;-78
2022/04/22 00:38:58;;;;;;;10.07;6.40;;;6.80;92.90;;;;;;5076534;28;20029;-81
2022/04/22 00:41:23;;;;;;;10.77;6.82;;;6.80;93.00;;;;;;5078209;28;20033;-80
2022/04/22 00:43:50;;;;;;;8.18;6.72;;;6.80;93.10;;;;;;5077445;28;20024;-81
2022/04/22 00:46:17;;;;;;;8.65;6.55;;;6.80;93.30;;;;;;5075850;28;20024;-81
2022/04/22 00:48:43;;;;;;;8.63;7.15;;;6.80;93.30;;;;;;5075501;28;20033;-80
2022/04/22 00:51:10;;;;;;;10.50;7.13;;;6.80;93.50;;;;;;5077324;28;20021;-81
2022/04/22 00:53:46;;;;;;;7.35;6.55;;;6.70;93.60;;;;;;5077890;28;20028;-79
2022/04/22 00:56:13;;;;;;;10.00;7.13;;;6.70;93.70;;;;;;5077078;28;20028;-80
2022/04/22 00:58:44;;;;;;;13.40;7.65;;;6.70;93.90;;;;;;5076556;28;20048;-80
2022/04/22 01:01:11;;;;;;;11.05;7.00;;;6.60;94.00;;;;;;5076771;28;20024;-79
2022/04/22 01:03:38;;;;;;;9.98;6.57;;;6.60;94.10;;;;;;5077201;28;20033;-80
2022/04/22 01:11:36;;;;;;;8.05;6.50;;;6.50;94.60;;;;;;5077617;28;20027;-79
2022/04/22 01:14:06;;;;;;;9.13;6.63;;;6.50;94.80;;;;;;5076051;28;20016;-81
2022/04/22 01:16:33;;;;;;;8.73;6.75;;;6.40;95.10;;;;;;5076628;28;20024;-79
2022/04/22 01:18:59;;;;;;;8.55;7.07;;;6.40;95.00;;;;;;5076092;28;20436;-78
2022/04/22 01:21:25;;;;;;;7.53;6.28;;;6.40;95.20;;;;;;5077277;28;20027;-79
2022/04/22 01:23:50;;;;;;;10.00;6.88;;;6.30;95.30;;;;;;5075831;28;20142;-79
2022/04/22 01:26:16;;;;;;;9.65;7.30;;;6.30;95.40;;;;;;5076953;28;20473;-80
2022/04/22 01:28:43;;;;;;;8.88;6.50;;;6.30;95.50;;;;;;5076779;28;20048;-80
2022/04/22 01:31:09;;;;;;;8.73;7.05;;;6.30;95.60;;;;;;5078073;28;20025;-80
2022/04/22 01:33:35;;;;;;;9.18;7.03;;;6.30;95.70;;;;;;5086996;28;20032;-78
2022/04/22 01:36:01;;;;;;;9.15;7.07;;;6.30;95.90;;;;;;5084439;28;20024;-79
2022/04/22 01:38:27;;;;;;;9.63;7.30;;;6.30;96.00;;;;;;5076651;28;20063;-80
2022/04/22 01:40:54;;;;;;;10.70;6.78;;;6.30;96.10;;;;;;5077127;28;20048;-79
2022/04/22 01:43:21;;;;;;;8.93;6.75;;;6.20;96.20;;;;;;5076905;28;20028;-79
2022/04/22 01:45:47;;;;;;;9.93;7.10;;;6.20;96.30;;;;;;5077571;28;20028;-81
2022/04/22 01:48:12;;;;;;;13.85;7.30;;;6.20;96.40;;;;;;5076547;28;20021;-81
2022/04/22 01:50:38;;;;;;;9.93;7.35;;;6.20;96.60;;;;;;5077512;28;20481;-79
2022/04/22 01:53:06;;;;;;;10.05;7.78;;;6.20;96.70;;;;;;5076784;28;20017;-80
2022/04/22 01:55:33;;;;;;;8.57;7.00;;;6.10;96.80;;;;;;5077058;28;20517;-80
2022/04/22 01:57:59;;;;;;;9.10;7.30;;;6.10;96.90;;;;;;5074271;28;20077;-80
2022/04/22 02:00:24;;;;;;;9.05;7.05;;;6.10;97.10;;;;;;5076961;28;20024;-80
2022/04/22 02:02:50;;;;;;;8.95;7.35;;;6.10;97.20;;;;;;5077156;28;20059;-81
2022/04/22 02:05:16;;;;;;;10.18;7.07;;;6.10;97.20;;;;;;5076085;28;20089;-80
2022/04/22 02:07:42;;;;;;;9.68;7.32;;;6.10;97.40;;;;;;5076573;28;20028;-80
2022/04/22 02:10:08;;;;;;;10.15;7.78;;;6.10;97.40;;;;;;5085447;28;20028;-80
2022/04/22 02:12:34;;;;;;;11.73;7.10;;;6.10;97.50;;;;;;5091108;28;20016;-81
2022/04/22 02:15:00;;;;;;;10.90;7.32;;;6.00;97.60;;;;;;5080201;28;20078;-80
2022/04/22 02:17:26;;;;;;;10.73;7.10;;;6.00;97.70;;;;;;5081762;28;20065;-80
2022/04/22 02:19:52;;;;;;;9.50;7.38;;;6.00;97.80;;;;;;5091476;28;20042;-80
2022/04/22 02:22:18;;;;;;;11.80;7.43;;;6.00;97.90;;;;;;5086054;28;20401;-80
2022/04/22 02:24:43;;;;;;;9.88;7.25;;;6.00;98.00;;;;;;5078813;28;20032;-81
2022/04/22 02:29:53;;;;;;;10.85;7.20;;;5.90;98.30;;;;;;5078607;28;20039;-80
2022/04/22 02:32:19;;;;;;;8.05;6.78;;;5.90;98.30;;;;;;5078024;28;20029;-80
2022/04/22 02:34:45;;;;;;;10.70;7.95;;;5.90;98.40;;;;;;5076129;28;20465;-80
2022/04/22 02:37:10;;;;;;;9.95;7.35;;;5.90;98.40;;;;;;5076407;28;20056;-81
2022/04/22 02:39:37;;;;;;;10.73;8.15;;;5.90;98.60;;;;;;5077603;28;20473;-80
2022/04/22 02:47:31;;;;;;;10.10;7.57;;;5.90;98.80;;;;;;5095237;28;20127;-80
2022/04/22 02:49:57;;;;;;;9.70;7.70;;;5.90;98.80;;;;;;5090114;28;20096;-81
2022/04/22 02:52:23;;;;;;;10.35;7.82;;;5.90;99.00;;;;;;5080433;28;20834;-81
2022/04/22 02:54:49;;;;;;;9.05;7.65;;;5.80;99.00;;;;;;5079912;28;20021;-81
2022/04/22 02:57:16;;;;;;;10.43;7.50;;;5.80;99.10;;;;;;5080360;28;20024;-80
2022/04/22 02:59:43;;;;;;;11.25;8.23;;;5.80;99.20;;;;;;5083309;28;20056;-80
2022/04/22 03:02:09;;;;;;;11.98;8.27;;;5.80;99.40;;;;;;5088322;28;20028;-78
2022/04/22 03:04:34;;;;;;;9.35;7.53;;;5.70;99.50;;;;;;5088834;28;20058;-78
2022/04/22 03:07:01;;;;;;;15.13;8.73;;;5.70;99.50;;;;;;5085673;28;20039;-79
2022/04/22 03:09:26;;;;;;;15.70;8.73;;;5.70;99.60;;;;;;5082802;28;20031;-79
2022/04/22 03:11:52;;;;;;;12.25;8.40;;;5.70;99.80;;;;;;5081907;28;20017;-79
2022/04/22 03:14:18;;;;;;;11.25;8.07;;;5.70;99.90;;;;;;5079560;28;20025;-79
2022/04/22 03:16:44;;;;;;;12.30;8.48;;;5.60;99.90;;;;;;5078341;28;20024;-79
2022/04/22 03:19:10;;;;;;;11.43;8.68;;;5.60;99.90;;;;;;5078643;28;20033;-78
2022/04/22 03:21:36;;;;;;;12.27;8.73;;;5.60;99.90;;;;;;5082010;28;20036;-79
2022/04/22 03:24:02;;;;;;;12.70;8.73;;;5.50;99.90;;;;;;5082181;28;20477;-79
2022/04/22 03:26:28;;;;;;;10.55;8.20;;;5.50;99.90;;;;;;5080611;28;20078;-79
2022/04/22 03:28:53;;;;;;;10.82;7.97;;;5.50;99.90;;;;;;5080833;28;20047;-80
2022/04/22 03:31:19;;;;;;;13.15;7.60;;;5.50;99.90;;;;;;5077955;28;20389;-79
2022/04/22 03:33:45;;;;;;;10.88;8.43;;;5.40;99.90;;;;;;5079915;28;20063;-79
2022/04/22 03:36:12;;;;;;;11.48;8.65;;;5.40;99.90;;;;;;5080278;28;20020;-79
2022/04/22 03:38:38;;;;;;;12.93;8.70;;;5.40;99.90;;;;;;5080398;28;20036;-79
2022/04/22 03:41:03;;;;;;;12.40;9.65;;;5.40;99.90;;;;;;5082505;28;20592;-80
2022/04/22 03:43:29;;;;;;;10.80;8.50;;;5.30;99.90;;;;;;5082970;28;20051;-80
2022/04/22 03:45:55;;;;;;;13.15;8.90;;;5.30;99.90;;;;;;5084870;28;20042;-79
2022/04/22 03:48:21;;;;;;;14.77;10.20;;;5.40;99.90;;;;;;5094505;28;20036;-80
2022/04/22 03:50:47;;;;;;;12.27;9.23;;;5.30;99.90;;;;;;5094802;28;20028;-79
2022/04/22 03:53:13;;;;;;;12.70;9.13;;;5.30;99.90;;;;;;5093847;28;20013;-79
2022/04/22 03:55:40;;;;;;;15.38;9.88;;;5.20;99.90;;;;;;5076557;28;20437;-81
2022/04/22 03:58:13;;;;;;;12.40;9.07;;;5.20;99.90;;;;;;5079484;28;20013;-79
2022/04/22 04:00:44;;;;;;;12.57;9.10;;;5.20;99.90;;;;;;5081986;28;20024;-80
2022/04/22 04:03:21;;;;;;;13.23;9.18;;;5.20;99.90;;;;;;5077789;28;20028;-80
2022/04/22 04:05:49;;;;;;;13.48;9.93;;;5.20;99.90;;;;;;5079204;28;20119;-80
2022/04/22 04:08:17;;;;;;;13.70;8.90;;;5.20;99.90;;;;;;5073668;28;20028;-81
2022/04/22 04:16:07;;;;;;;12.63;9.32;;;5.10;99.90;;;;;;5079178;28;20171;-80
2022/04/22 04:18:35;;;;;;;11.23;8.98;;;5.10;99.90;;;;;;5078303;28;20052;-81
2022/04/22 04:23:49;;;;;;;13.60;10.35;;;5.10;99.90;;;;;;5089103;28;20039;-82
2022/04/22 04:26:15;;;;;;;13.93;10.75;;;5.10;99.90;;;;;;5094094;28;20085;-80
2022/04/22 04:28:43;;;;;;;16.08;9.93;;;5.10;99.90;;;;;;5079401;28;20025;-80
2022/04/22 04:31:11;;;;;;;14.02;9.88;;;5.10;99.90;;;;;;5077363;28;20130;-79
2022/04/22 04:33:38;;;;;;;15.27;10.40;;;5.10;99.90;;;;;;5076696;28;20480;-80
2022/04/22 04:36:05;;;;;;;12.45;9.70;;;5.20;99.90;;;;;;5077134;28;20040;-80
2022/04/22 04:38:31;;;;;;;14.18;10.32;;;5.20;99.90;;;;;;5075575;28;20033;-79
2022/04/22 04:40:57;;;;;;;17.15;10.57;;;5.30;99.90;;;;;;5076252;28;20151;-79
2022/04/22 04:43:24;;;;;;;13.77;9.43;;;5.40;99.90;;;;;;5077272;28;20769;-79
2022/04/22 04:45:50;;;;;;;11.63;8.93;;;5.50;99.90;;;;;;5075585;28;20082;-79
2022/04/22 04:48:17;;;;;;;11.90;9.23;;;5.50;99.90;;;;;;5078587;28;20488;-79
2022/04/22 04:50:45;;;;;;;16.75;12.38;;;5.60;99.90;;;;;;5089341;22;20078;-79
2022/04/22 04:53:12;;;;;;;13.50;10.15;;;5.70;99.90;;;;;;5099146;28;20104;-79
2022/04/22 04:55:39;;;;;;;16.15;11.57;;;5.80;99.90;;;;;;5100224;28;20024;-79
2022/04/22 04:58:05;;;;;;;14.13;10.88;;;5.90;99.90;;;;;;5098763;28;20042;-78
2022/04/22 05:00:31;;;;;;;15.35;10.45;;;5.90;99.90;;;;;;5099165;28;20016;-78
2022/04/22 05:02:57;;;;;;;15.25;10.98;;;6.00;99.90;;;;;;5099295;28;20073;-79
2022/04/22 05:05:23;;;;;;;14.15;11.18;;;6.00;99.90;;;;;;5099044;28;20069;-79
2022/04/22 05:07:48;;;;;;;15.35;11.13;;;6.10;99.90;;;;;;5081424;28;20474;-78
2022/04/22 05:10:16;;;;;;;14.57;10.50;;;6.10;99.90;;;;;;5103316;28;20024;-79
2022/04/22 05:12:42;;;;;;;14.77;11.27;;;6.20;99.90;;;;;;5083702;28;20031;-79
2022/04/22 05:15:08;;;;;;;15.00;11.10;;;6.20;99.90;;;;;;5102305;28;20472;-78
2022/04/22 05:17:35;;;;;;;14.50;10.23;;;6.30;99.90;;;;;;5103084;28;20485;-79
2022/04/22 05:20:01;;;;;;;12.93;8.75;;;6.30;99.90;;;;;;5077754;28;20334;-79
2022/04/22 05:22:27;;;;;;;17.15;11.88;;;6.40;99.90;;;;;;5058459;28;20051;-78
2022/04/22 05:24:52;;;;;;;14.52;10.73;;;6.50;99.70;;;;;;5050266;28;20377;-79
2022/04/22 05:27:18;;;;;;;15.23;11.05;;;6.60;99.40;;;;;;5081722;28;20020;-77
2022/04/22 05:32:37;;;;;;;16.60;11.32;;;6.70;99.20;;;;;;5079696;28;20036;-81
2022/04/22 05:35:04;;;;;;;17.33;11.23;;;6.80;98.90;;;;;;5062467;28;20040;-81
2022/04/22 05:37:50;;;;;;;16.67;11.85;;;6.80;98.80;;;;;;5060390;28;20378;-79
2022/04/22 05:40:20;;;;;;;15.35;11.20;;;6.90;98.40;;;;;;5069760;28;20020;-82
2022/04/22 05:42:46;;;;;;;14.75;10.48;;;6.90;98.30;;;;;;5080720;28;20017;-81
2022/04/22 05:45:13;;;;;;;14.90;10.63;;;7.00;98.20;;;;;;5071241;28;20120;-80
2022/04/22 05:47:40;;;;;;;15.93;11.35;;;7.10;98.20;;;;;;5076934;28;20021;-80
2022/04/22 05:50:07;;;;;;;17.10;11.25;;;7.10;97.70;;;;;;5086741;28;20045;-82
2022/04/22 05:52:34;;;;;;;15.95;11.35;;;7.20;97.30;;;;;;5070897;28;20027;-81
2022/04/22 05:55:03;;;;;;;14.85;10.68;;;7.30;97.40;;;;;;5052640;28;20021;-81
2022/04/22 05:57:33;;;;;;;15.75;11.70;;;7.30;97.30;;;;;;5068344;28;20044;-80
2022/04/22 06:00:00;;;;;;;14.98;12.13;;;7.30;97.20;;;;;;5085151;28;20032;-81
2022/04/22 06:02:26;;;;;;;14.82;11.82;;;7.30;97.20;;;;;;5073041;28;20021;-81
2022/04/22 06:04:53;;;;;;;18.02;12.07;;;7.40;97.00;;;;;;5054903;28;20020;-83
2022/04/22 06:07:19;;;;;;;17.02;10.65;;;7.50;96.60;;;;;;5055990;28;20025;-78
2022/04/22 06:12:29;;;;;;;18.45;10.38;;;7.70;96.10;;;;;;5091020;28;20039;-80
2022/04/22 06:14:59;;;;;;;16.15;11.10;;;7.80;95.70;;;;;;5075566;28;20068;-80
2022/04/22 06:17:29;;;;;;;18.08;12.02;;;7.90;95.50;;;;;;5056373;28;20016;-80
2022/04/22 06:19:56;;;;;;;15.40;10.07;;;8.00;95.20;;;;;;5069825;28;20048;-81
2022/04/22 06:22:22;;;;;;;15.90;11.45;;;8.10;95.00;;;;;;5071781;28;20032;-81
2022/04/22 06:24:48;;;;;;;13.07;9.15;;;8.20;94.50;;;;;;5073268;28;20032;-81
2022/04/22 06:27:21;;;;;;;15.52;9.63;;;9.00;93.80;;;;;;5059473;28;20036;-80
2022/04/22 06:29:48;;;;;;;12.38;9.40;;;9.70;92.10;;;;;;5071534;28;20084;-78
2022/04/22 06:32:14;;;;;;;12.70;8.95;;;10.00;90.20;;;;;;5064865;28;20014;-79
2022/04/22 06:34:40;;;;;;;14.15;9.38;;;9.90;89.70;;;;;;5075237;28;20032;-81
2022/04/22 06:37:06;;;;;;;12.98;9.27;;;9.70;89.80;;;;;;5084679;28;20008;-78
2022/04/22 06:45:46;;;;;;;11.90;9.35;;;9.60;90.00;;;;;;5080919;28;20077;-80
2022/04/22 06:47:47;;;;;;;11.55;8.55;;;9.60;87.80;;;;;;5073552;28;20044;-81
2022/04/22 06:50:19;;;;;;;15.55;10.30;;;9.60;87.80;;;;;;5079229;28;20039;-81
2022/04/22 06:52:47;;;;;;;14.27;10.30;;;9.40;88.30;;;;;;5088969;28;20032;-82
2022/04/22 06:55:22;;;;;;;18.20;10.00;;;9.30;88.30;;;;;;5071360;28;20043;-83
2022/04/22 06:57:49;;;;;;;13.80;10.07;;;9.30;87.90;;;;;;5071982;28;20040;-81
2022/04/22 07:00:17;;;;;;;15.77;10.23;;;9.30;88.60;;;;;;5080670;28;20017;-82
2022/04/22 07:02:43;;;;;;;12.57;9.85;;;9.30;87.90;;;;;;5088122;28;20088;-83
2022/04/22 07:05:11;;;;;;;12.73;9.57;;;9.20;88.90;;;;;;5069716;28;20813;-81
2022/04/22 07:07:37;;;;;;;10.88;8.57;;;9.20;89.90;;;;;;5074987;28;20044;-82
2022/04/22 07:10:03;;;;;;;17.58;10.10;;;9.40;90.00;;;;;;5069608;28;20040;-82
2022/04/22 07:12:31;;;;;;;12.57;9.63;;;9.50;86.90;;;;;;5067214;28;20057;-81
2022/04/22 07:15:06;;;;;;;12.35;8.85;;;9.50;87.30;;;;;;5074726;28;20025;-82
2022/04/22 07:17:33;;;;;;;12.88;9.93;;;9.50;88.30;;;;;;5065683;28;20025;-81
2022/04/22 07:20:01;;;;;;;16.77;9.70;;;9.50;87.20;;;;;;5079541;28;20031;-82
2022/04/22 07:22:27;;;;;;;10.15;8.85;;;9.50;87.90;;;;;;5065538;28;20025;-82
2022/04/22 07:24:54;;;;;;;13.07;9.05;;;9.60;87.50;;;;;;5066734;28;20029;-83
2022/04/22 07:27:30;;;;;;;11.75;9.55;;;9.70;87.40;;;;;;5065761;28;20017;-82
2022/04/22 07:29:58;;;;;;;14.45;9.45;;;9.70;86.30;;;;;;5076551;28;20037;-81
2022/04/22 07:32:25;;;;;;;13.30;9.73;;;9.80;87.40;;;;;;5088649;28;20511;-82
2022/04/22 07:34:51;;;;;;;12.80;8.77;;;10.00;85.90;;;;;;5086890;28;20012;-83
2022/04/22 07:37:18;;;;;;;11.32;8.82;;;10.10;86.00;;;;;;5069855;28;20082;-82
2022/04/22 07:39:44;;;;;;;12.30;9.55;;;10.10;85.90;;;;;;5080515;28;20363;-84
2022/04/22 07:42:20;;;;;;;12.25;8.60;;;10.30;86.10;;;;;;5069102;28;20044;-82
2022/04/22 07:47:34;;;;;;;14.38;8.95;;;10.50;82.90;;;;;;5065537;28;20078;-82
2022/04/22 07:50:07;;;;;;;13.20;9.60;;;10.40;82.70;;;;;;5067657;28;20421;-81
2022/04/22 07:52:34;;;;;;;12.57;9.77;;;10.40;82.60;;;;;;5084225;28;20389;-82
2022/04/22 07:55:00;;;;;;;14.35;9.13;;;10.50;82.90;;;;;;5066800;28;20033;-82
2022/04/22 07:57:27;;;;;;;10.07;7.93;;;10.50;82.20;;;;;;5086368;28;20032;-83
2022/04/22 07:59:53;;;;;;;11.73;8.07;;;10.60;82.70;;;;;;5071890;28;20370;-83
2022/04/22 08:02:19;;;;;;;16.75;8.38;;;11.00;82.40;;;;;;5081771;28;20033;-80
2022/04/22 08:04:45;;;;;;;11.90;9.00;;;11.40;80.30;;;;;;5084576;28;20021;-82
2022/04/22 08:07:11;;;;;;;9.27;7.95;;;11.50;76.90;;;;;;5066233;28;20089;-82
2022/04/22 08:09:37;;;;;;;11.13;7.88;;;11.40;77.50;;;;;;5066321;28;20028;-82
2022/04/22 08:12:04;;;;;;;9.15;7.53;;;11.30;78.60;;;;;;5077633;28;20060;-81
2022/04/22 08:14:31;;;;;;;9.07;8.13;;;11.30;79.40;;;;;;5065729;28;20108;-82
2022/04/22 08:16:58;;;;;;;10.30;8.35;;;11.50;76.50;;;;;;5065095;28;20467;-82
2022/04/22 08:19:24;;;;;;;11.98;8.82;;;11.70;77.00;;;;;;5064158;28;20036;-81
2022/04/22 08:21:53;;;;;;;10.52;7.50;;;11.90;76.70;;;;;;5067961;28;20120;-81
2022/04/22 08:24:18;;;;;;;8.65;7.47;;;12.10;74.80;;;;;;5070115;28;20112;-81
2022/04/22 08:26:45;;;;;;;7.78;6.95;;;12.00;74.70;;;;;;5087879;28;20025;-82
2022/04/22 08:29:11;;;;;;;9.45;7.78;;;12.00;75.60;;;;;;5085522;28;20108;-82
2022/04/22 08:31:37;;;;;;;7.97;6.55;;;12.00;74.80;;;;;;5059671;28;20111;-81
2022/04/22 08:34:03;;;;;;;7.07;6.38;;;12.00;74.20;;;;;;5084628;28;20039;-82
2022/04/22 08:36:30;;;;;;;12.13;7.00;;;12.20;74.30;;;;;;5087421;28;20032;-82
2022/04/22 08:38:59;;;;;;;9.25;7.28;;;12.20;72.20;;;;;;5085167;28;20032;-82
2022/04/22 08:41:25;;;;;;;8.30;7.47;;;12.20;72.90;;;;;;5086124;28;20139;-80
2022/04/22 08:43:52;;;;;;;10.85;7.07;;;12.20;73.10;;;;;;5073885;28;20021;-82
2022/04/22 08:51:48;;;;;;;7.90;7.00;;;13.00;68.90;;;;;;5064415;28;20062;-82
2022/04/22 08:54:15;;;;;;;12.20;7.63;;;13.00;69.70;;;;;;5066577;28;20036;-83
2022/04/22 08:56:42;;;;;;;11.52;7.65;;;13.10;69.60;;;;;;5070597;28;20052;-80
2022/04/22 08:59:09;;;;;;;11.48;7.13;;;13.20;68.20;;;;;;5082999;28;20020;-82
2022/04/22 09:01:37;;;;;;;7.55;6.82;;;13.10;67.90;;;;;;5084348;28;20020;-82
2022/04/22 09:04:04;;;;;;;8.80;6.45;;;13.10;68.60;;;;;;5064418;28;20029;-81
2022/04/22 09:06:31;;;;;;;10.13;7.45;;;13.30;69.60;;;;;;5045662;28;20451;-80
2022/04/22 09:08:58;;;;;;;8.50;6.55;;;13.50;66.50;;;;;;5028888;28;20037;-80
2022/04/22 09:11:24;;;;;;;14.05;8.05;;;13.50;67.40;;;;;;5009254;28;20037;-81
2022/04/22 09:13:50;;;;;;;9.07;7.40;;;13.50;66.50;;;;;;5051802;28;20048;-86
2022/04/22 09:16:24;;;;;;;8.98;6.80;;;13.40;66.70;;;;;;5074426;28;20025;-81
2022/04/22 09:19:01;;;;;;;8.77;6.50;;;13.20;67.30;;;;;;5073741;28;20025;-83
2022/04/22 09:21:29;;;;;;;10.30;6.35;;;13.50;67.90;;;;;;5072131;28;20028;-81
2022/04/22 09:23:55;;;;;;;11.30;6.20;;;13.70;66.60;;;;;;5083948;28;20040;-82
2022/04/22 09:26:26;;;;;;;8.75;6.38;;;13.70;66.30;;;;;;5083058;28;20020;-83
2022/04/22 09:29:03;;;;;;;8.27;6.78;;;13.70;65.60;;;;;;5073373;28;20035;-82
2022/04/22 09:31:29;;;;;;;7.90;6.43;;;13.60;65.30;;;;;;5070679;28;20025;-81
2022/04/22 09:33:56;;;;;;;8.48;6.20;;;13.80;66.50;;;;;;5071523;28;20053;-82
2022/04/22 09:45:06;;;;;;;8.85;6.50;;;13.80;65.20;;;;;;5082679;28;20071;-82
2022/04/22 09:47:35;;;;;;;10.35;7.18;;;13.90;65.30;;;;;;5081363;28;20034;-82
2022/04/22 09:50:11;;;;;;;11.20;7.07;;;13.80;64.60;;;;;;5079370;28;20087;-82
2022/04/22 09:52:39;;;;;;;8.02;6.80;;;13.60;65.30;;;;;;5051180;28;20477;-82
2022/04/22 09:55:07;;;;;;;7.90;6.65;;;13.50;66.50;;;;;;5064096;28;20029;-82
2022/04/22 09:57:49;;;;;;;9.13;7.10;;;13.60;66.40;;;;;;5062851;28;20021;-82
2022/04/22 10:00:19;;;;;;;7.90;6.00;;;13.70;65.50;;;;;;5063598;28;20029;-82
2022/04/22 10:02:52;;;;;;;8.98;6.68;;;13.70;65.90;;;;;;5063461;28;20196;-82
2022/04/22 10:05:19;;;;;;;7.35;6.65;;;13.80;65.00;;;;;;5062484;28;20037;-81
2022/04/22 10:07:51;;;;;;;9.02;6.85;;;13.80;65.80;;;;;;5086692;28;20107;-83
2022/04/22 10:10:19;;;;;;;6.95;5.85;;;14.20;66.00;;;;;;5092252;28;20040;-81
2022/04/22 10:12:48;;;;;;;12.13;7.43;;;14.60;64.70;;;;;;5083094;28;20029;-82
2022/04/22 10:15:17;;;;;;;15.75;8.00;;;14.70;62.30;;;;;;5079115;28;20015;-81
2022/04/22 10:17:45;;;;;;;9.98;7.82;;;14.60;62.60;;;;;;5100650;28;20005;-82
2022/04/22 10:20:12;;;;;;;11.75;7.97;;;14.40;63.10;;;;;;5084256;28;20013;-81
2022/04/22 10:22:38;;;;;;;11.15;7.47;;;14.30;63.50;;;;;;5085134;28;20036;-81
2022/04/22 10:25:07;;;;;;;11.98;7.35;;;14.20;64.00;;;;;;5081678;28;20016;-80
2022/04/22 10:27:39;;;;;;;12.25;8.13;;;14.20;64.20;;;;;;5095226;28;20068;-82
2022/04/22 10:30:10;;;;;;;11.82;7.80;;;14.30;64.80;;;;;;5082046;28;20045;-82
2022/04/22 10:32:39;;;;;;;7.38;6.40;;;14.30;63.20;;;;;;5051870;28;20071;-83
2022/04/22 10:35:05;;;;;;;6.43;5.80;;;14.40;64.00;;;;;;5049796;28;20107;-80
2022/04/22 10:37:33;;;;;;;8.45;7.50;;;14.60;64.00;;;;;;5051932;28;20048;-81
2022/04/22 10:40:00;;;;;;;10.85;7.18;;;14.60;62.70;;;;;;5069405;28;20108;-83
2022/04/22 10:42:35;;;;;;;12.20;8.27;;;14.50;63.30;;;;;;5068269;28;20123;-83
2022/04/22 10:47:51;;;;;;;8.20;6.78;;;14.60;63.40;;;;;;5067471;28;20086;-83
2022/04/22 10:50:42;;;;;;;9.88;7.05;;;14.70;63.20;;;;;;5071676;28;20041;-81
2022/04/22 10:53:25;;;;;;;8.13;6.55;;;14.80;62.10;;;;;;5072504;28;20168;-80
2022/04/22 10:55:51;;;;;;;9.25;7.63;;;14.80;61.90;;;;;;5052491;28;20036;-83
2022/04/22 10:58:17;;;;;;;7.05;6.28;;;14.80;62.10;;;;;;5086041;28;20039;-80
2022/04/22 11:00:51;;;;;;;9.63;7.70;;;14.90;62.10;;;;;;5070503;28;20033;-80
2022/04/22 11:03:18;;;;;;;9.63;7.22;;;15.10;60.60;;;;;;5072356;28;20504;-83
2022/04/22 11:05:46;;;;;;;8.07;6.85;;;15.20;60.80;;;;;;5088782;28;20103;-82
2022/04/22 11:08:25;;;;;;;9.70;8.07;;;15.20;60.90;;;;;;5069550;28;20481;-84
2022/04/22 11:10:53;;;;;;;7.82;7.10;;;15.20;60.40;;;;;;5068662;28;20044;-83
2022/04/22 11:13:30;;;;;;;8.27;6.75;;;15.10;60.60;;;;;;5086423;28;20032;-83
2022/04/22 11:15:59;;;;;;;9.30;8.25;;;15.10;61.60;;;;;;5088943;28;20051;-82
2022/04/22 11:18:26;;;;;;;11.32;8.85;;;15.20;60.30;;;;;;5076928;28;20031;-80
2022/04/22 11:20:58;;;;;;;8.65;7.53;;;15.10;60.40;;;;;;5084197;28;20036;-83
2022/04/22 11:23:33;;;;;;;;;;;15.20;61.20;;;;;;5074519;28;20442;-82
2022/04/22 11:25:59;;;;;;;9.18;6.65;;;15.70;60.90;;;;;;5053777;28;19951;-81
2022/04/22 11:28:26;;;;;;;7.72;6.90;;;16.30;58.10;;;;;;5086489;28;20020;-84
2022/04/22 11:30:54;;;;;;;13.57;8.85;;;16.50;57.70;;;;;;5070557;28;20053;-82
2022/04/22 11:33:22;;;;;;;8.02;6.82;;;16.50;57.50;;;;;;5053747;28;20032;-82
2022/04/22 11:35:53;;;;;;;8.35;6.20;;;16.50;57.70;;;;;;5070332;28;20009;-79
2022/04/22 11:38:20;;;;;;;9.05;7.38;;;16.40;57.60;;;;;;5085734;28;20041;-83
2022/04/22 11:40:50;;;;;;;10.75;8.10;;;16.40;57.30;;;;;;5065244;28;20056;-81
2022/04/22 11:43:20;;;;;;;12.63;8.82;;;16.20;57.20;;;;;;5072112;28;20062;-84
2022/04/22 11:45:49;;;;;;;11.40;8.05;;;16.20;57.80;;;;;;5082346;28;20047;-84
2022/04/22 11:48:23;;;;;;;9.23;7.82;;;16.30;57.40;;;;;;5084381;28;20048;-85
2022/04/22 11:50:49;;;;;;;12.13;7.18;;;16.30;57.60;;;;;;5076761;28;20029;-85
2022/04/22 11:53:17;;;;;;;6.80;5.97;;;16.30;58.40;;;;;;5084205;28;20438;-85
2022/04/22 11:55:44;;;;;;;10.00;7.10;;;16.40;58.30;;;;;;5074897;28;20073;-85
2022/04/22 11:58:14;;;;;;;13.00;9.23;;;16.40;57.70;;;;;;5082208;28;20071;-84
2022/04/22 12:06:16;;;;;;;11.80;8.55;;;16.40;57.90;;;;;;5074601;28;20120;-84
2022/04/22 12:09:06;;;;;;;9.27;8.27;;;16.40;57.20;;;;;;5069077;28;20068;-85
2022/04/22 12:11:42;;;;;;;9.55;7.85;;;16.30;57.70;;;;;;5070278;28;20062;-82
2022/04/22 12:14:20;;;;;;;11.15;8.32;;;16.40;57.80;;;;;;5087562;28;20128;-83
2022/04/22 12:16:57;;;;;;;8.32;7.40;;;16.60;57.30;;;;;;5064733;28;20021;-85
2022/04/22 12:19:24;;;;;;;9.07;7.85;;;16.90;56.50;;;;;;5045362;28;20021;-84
2022/04/22 12:21:50;;;;;;;9.90;7.40;;;16.80;56.40;;;;;;5072297;28;20028;-83
2022/04/22 12:24:16;;;;;;;15.55;8.25;;;16.60;57.10;;;;;;5084589;28;20025;-84
2022/04/22 12:26:44;;;;;;;9.65;8.02;;;16.80;57.20;;;;;;5093765;28;20048;-81
2022/04/22 12:29:20;;;;;;;10.57;7.65;;;16.80;57.20;;;;;;5073211;28;20031;-84
2022/04/22 12:31:49;;;;;;;8.88;7.65;;;16.80;57.40;;;;;;5080889;28;20024;-85
2022/04/22 12:34:26;;;;;;;8.77;7.88;;;17.00;56.60;;;;;;5061700;28;20049;-84
2022/04/22 12:36:52;;;;;;;9.95;8.65;;;17.00;56.60;;;;;;5046033;28;20040;-84
2022/04/22 12:39:38;;;;;;;11.65;9.13;;;16.90;57.10;;;;;;5065172;28;20029;-85
2022/04/22 12:42:05;;;;;;;9.77;7.95;;;16.80;57.10;;;;;;5066700;28;20473;-86
2022/04/22 12:44:31;;;;;;;10.35;7.13;;;16.90;57.30;;;;;;5084021;28;20035;-85
2022/04/22 12:52:33;;;;;;;8.85;8.02;;;17.20;57.20;;;;;;5077354;28;20040;-85
2022/04/22 12:55:08;;;;;;;10.43;7.13;;;17.40;56.10;;;;;;5045061;28;20029;-85
2022/04/22 12:57:36;;;;;;;8.77;6.82;;;17.80;55.40;;;;;;5046208;28;20039;-82
2022/04/22 13:00:16;;;;;;;7.25;5.47;;;18.20;54.50;;;;;;5062162;28;20024;-84
2022/04/22 13:02:42;;;;;;;9.65;7.00;;;18.70;53.40;;;;;;5080133;28;20028;-84
2022/04/22 13:05:25;;;;;;;9.57;7.53;;;19.10;52.00;;;;;;5084500;28;20016;-83
2022/04/22 13:07:51;;;;;;;9.05;7.10;;;18.70;51.80;;;;;;5063696;28;20036;-82
2022/04/22 13:10:22;;;;;;;8.93;8.05;;;18.60;52.90;;;;;;5083097;28;20024;-84
2022/04/22 13:12:48;;;;;;;7.25;6.55;;;18.50;52.60;;;;;;5069546;28;20020;-86
2022/04/22 13:15:18;;;;;;;10.85;7.65;;;18.30;53.20;;;;;;5073204;28;20008;-83
2022/04/22 13:17:48;;;;;;;7.57;6.88;;;18.30;53.00;;;;;;5063387;28;20031;-85
2022/04/22 13:20:17;;;;;;;10.45;8.50;;;18.30;53.50;;;;;;5082089;28;20081;-81
2022/04/22 13:22:43;;;;;;;14.02;9.00;;;18.30;53.40;;;;;;5071015;28;20036;-83
2022/04/22 13:25:10;;;;;;;11.13;7.47;;;17.90;54.30;;;;;;5061569;28;20033;-82
2022/04/22 13:27:37;;;;;;;9.15;8.13;;;18.00;55.40;;;;;;5043807;28;20028;-85
2022/04/22 13:30:04;;;;;;;7.47;6.68;;;18.10;53.80;;;;;;5062535;28;20025;-85
2022/04/22 13:32:30;;;;;;;8.63;7.72;;;18.00;54.60;;;;;;5062058;28;20029;-85
2022/04/22 13:34:55;;;;;;;10.68;8.48;;;18.00;54.70;;;;;;5061341;28;20389;-83
2022/04/22 13:37:21;;;;;;;11.50;8.57;;;17.90;54.20;;;;;;5062011;28;20009;-83
2022/04/22 13:39:47;;;;;;;8.02;6.95;;;17.70;54.90;;;;;;5068800;28;20025;-83
2022/04/22 13:42:18;;;;;;;8.43;6.93;;;17.50;55.90;;;;;;5045012;28;20029;-83
2022/04/22 13:52:57;;;;;;;10.15;6.43;;;17.40;56.50;;;;;;5097355;28;20035;-79
2022/04/22 13:55:23;;;;;;;10.40;7.45;;;17.50;56.10;;;;;;5097154;28;20021;-78
2022/04/22 13:57:48;;;;;;;7.22;6.53;;;17.60;56.00;;;;;;5078217;28;20013;-77
2022/04/22 14:00:15;;;;;;;6.10;5.60;;;17.60;55.50;;;;;;5076590;28;20017;-80